createdAt,value
2023-02-06T00:01:39.245Z,99837.73
2023-02-06T00:04:07.234Z,99840.08
2023-02-06T00:06:35.473Z,99838.87
2023-02-06T00:09:04.558Z,99835.34
2023-02-06T00:11:33.203Z,99833.38
2023-02-06T00:14:01.582Z,99831.54
2023-02-06T00:16:32.056Z,99833.41
2023-02-06T00:19:01.136Z,99833.88
2023-02-06T00:21:29.956Z,99839.45
2023-02-06T00:24:00.669Z,99838.95
2023-02-06T00:26:29.380Z,99837.59
2023-02-06T00:28:57.488Z,99842.65
2023-02-06T00:31:25.882Z,99845.52
2023-02-06T00:33:53.874Z,99846.36
2023-02-06T00:36:21.782Z,99849.20
2023-02-06T00:38:49.718Z,99845.64
2023-02-06T00:41:17.661Z,99844.45
2023-02-06T00:43:45.809Z,99848.67
2023-02-06T00:46:13.747Z,99843.31
2023-02-06T00:48:41.903Z,99837.42
2023-02-06T00:51:09.850Z,99835.44
2023-02-06T00:53:38.970Z,99834.82
2023-02-06T00:56:07.302Z,99839.72
2023-02-06T00:58:35.236Z,99838.76
2023-02-06T01:01:04.653Z,99823.27
2023-02-06T01:03:32.583Z,99821.30
2023-02-06T01:06:00.484Z,99820.85
2023-02-06T01:08:28.515Z,99813.76
2023-02-06T01:10:56.416Z,99813.09
2023-02-06T01:13:24.336Z,99816.10
2023-02-06T01:15:52.447Z,99811.34
2023-02-06T01:18:23.214Z,99804.63
2023-02-06T01:20:51.525Z,99805.48
2023-02-06T01:23:19.512Z,99806.69
2023-02-06T01:25:47.388Z,99801.42
2023-02-06T01:28:17.483Z,99795.55
2023-02-06T01:30:45.507Z,99789.30
2023-02-06T01:33:13.507Z,99793.48
2023-02-06T01:35:41.388Z,99791.14
2023-02-06T01:38:09.999Z,99788.79
2023-02-06T01:40:38.878Z,99793.81
2023-02-06T01:43:17.131Z,99798.64
2023-02-06T01:45:47.156Z,99792.69
2023-02-06T01:48:20.195Z,99793.86
2023-02-06T01:50:54.303Z,99787.27
2023-02-06T01:53:24.744Z,99788.08
2023-02-06T01:55:56.484Z,99796.61
2023-02-06T01:58:30.203Z,99790.83
2023-02-06T02:01:00.265Z,99789.29
2023-02-06T02:03:32.099Z,99791.95
2023-02-06T02:06:07.204Z,99789.75
2023-02-06T02:08:45.252Z,99778.08
2023-02-06T02:11:23.305Z,99769.13
2023-02-06T02:13:53.720Z,99762.36
2023-02-06T02:16:45.319Z,99762.52
2023-02-06T02:19:59.519Z,99762.85
2023-02-06T02:22:49.472Z,99759.61
2023-02-06T02:25:36.316Z,99749.13
2023-02-06T02:28:22.573Z,99749.05
2023-02-06T02:31:20.147Z,99753.25
2023-02-06T02:34:11.450Z,99753.18
2023-02-06T02:37:14.805Z,99752.78
2023-02-06T02:39:43.458Z,99754.61
2023-02-06T02:42:29.993Z,99753.21
2023-02-06T02:45:13.109Z,99745.41
2023-02-06T02:48:14.356Z,99734.20
2023-02-06T02:50:43.254Z,99728.54
2023-02-06T02:53:13.239Z,99730.44
2023-02-06T02:55:41.529Z,99733.39
2023-02-06T02:58:13.286Z,99729.45
2023-02-06T03:01:00.830Z,99724.01
2023-02-06T03:03:31.937Z,99727.30
2023-02-06T03:06:21.513Z,99725.85
2023-02-06T03:09:01.483Z,99733.81
2023-02-06T03:11:30.157Z,99742.63
2023-02-06T03:14:06.325Z,99741.35
2023-02-06T03:16:42.698Z,99737.02
2023-02-06T03:19:21.611Z,99741.39
2023-02-06T03:21:50.587Z,99744.50
2023-02-06T03:24:26.483Z,99751.36
2023-02-06T03:27:01.762Z,99754.41
2023-02-06T03:29:33.865Z,99753.90
2023-02-06T03:32:28.584Z,99753.59
2023-02-06T03:35:02.589Z,99758.19
2023-02-06T03:37:31.144Z,99754.73
2023-02-06T03:40:01.614Z,99755.64
2023-02-06T03:42:30.985Z,99756.37
2023-02-06T03:45:11.132Z,99751.89
2023-02-06T03:47:40.194Z,99746.77
2023-02-06T03:50:10.543Z,99748.67
2023-02-06T03:52:43.775Z,99749.02
2023-02-06T03:55:19.804Z,99744.99
2023-02-06T03:57:59.215Z,99743.98
2023-02-06T04:00:29.135Z,99748.75
2023-02-06T04:02:58.686Z,99750.20
2023-02-06T04:05:28.171Z,99746.42
2023-02-06T04:07:56.189Z,99744.39
2023-02-06T04:10:26.305Z,99753.24
2023-02-06T04:12:54.598Z,99754.19
2023-02-06T04:15:23.187Z,99756.52
2023-02-06T04:18:00.013Z,99759.14
2023-02-06T04:20:29.842Z,99758.89
2023-02-06T04:22:58.770Z,99762.48
2023-02-06T04:25:26.817Z,99766.25
2023-02-06T04:27:54.784Z,99763.21
2023-02-06T04:30:22.709Z,99766.42
2023-02-06T04:32:51.472Z,99763.23
2023-02-06T04:35:19.444Z,99762.92
2023-02-06T04:37:47.271Z,99764.84
2023-02-06T04:40:15.259Z,99761.54
2023-02-06T04:42:43.113Z,99762.10
2023-02-06T04:45:11.229Z,99760.16
2023-02-06T04:47:39.653Z,99763.77
2023-02-06T04:50:08.032Z,99763.55
2023-02-06T04:52:36.028Z,99761.96
2023-02-06T04:55:04.052Z,99765.29
2023-02-06T04:57:32.374Z,99768.27
2023-02-06T05:00:00.296Z,99772.11
2023-02-06T05:02:28.397Z,99771.61
2023-02-06T05:04:56.383Z,99770.31
2023-02-06T05:07:24.269Z,99770.90
2023-02-06T05:09:52.118Z,99772.39
2023-02-06T05:12:20.117Z,99773.27
2023-02-06T05:14:48.025Z,99774.32
2023-02-06T05:17:15.994Z,99779.54
2023-02-06T05:19:43.879Z,99776.02
2023-02-06T05:22:11.790Z,99769.83
2023-02-06T05:24:39.639Z,99763.94
2023-02-06T05:27:07.805Z,99768.46
2023-02-06T05:29:35.741Z,99768.30
2023-02-06T05:32:03.894Z,99765.77
2023-02-06T05:34:31.769Z,99767.11
2023-02-06T05:36:59.757Z,99769.23
2023-02-06T05:39:27.803Z,99767.80
2023-02-06T05:41:55.739Z,99764.02
2023-02-06T05:44:23.698Z,99759.88
2023-02-06T05:46:51.619Z,99757.59
2023-02-06T05:49:19.580Z,99755.77
2023-02-06T05:51:47.613Z,99761.79
2023-02-06T05:54:15.739Z,99761.68
2023-02-06T05:56:44.796Z,99761.22
2023-02-06T05:59:12.746Z,99763.96
2023-02-06T06:01:40.652Z,99769.13
2023-02-06T06:04:08.697Z,99771.11
2023-02-06T06:06:36.908Z,99768.41
2023-02-06T06:09:05.140Z,99773.59
2023-02-06T06:11:33.121Z,99772.53
2023-02-06T06:14:01.072Z,99774.06
2023-02-06T06:16:28.993Z,99775.11
2023-02-06T06:18:56.888Z,99774.16
2023-02-06T06:21:24.769Z,99776.95
2023-02-06T06:23:52.827Z,99780.41
2023-02-06T06:26:20.898Z,99779.82
2023-02-06T06:28:48.798Z,99776.95
2023-02-06T06:31:16.742Z,99777.64
2023-02-06T06:33:45.024Z,99778.65
2023-02-06T06:36:14.496Z,99778.83
2023-02-06T06:38:42.575Z,99779.86
2023-02-06T06:41:10.656Z,99779.23
2023-02-06T06:43:38.624Z,99777.38
2023-02-06T06:46:06.849Z,99777.33
2023-02-06T06:48:34.887Z,99776.13
2023-02-06T06:51:02.797Z,99771.40
2023-02-06T06:53:30.697Z,99774.19
2023-02-06T06:56:05.840Z,99776.83
2023-02-06T06:58:34.587Z,99779.97
2023-02-06T07:01:02.513Z,99782.73
2023-02-06T07:03:30.955Z,99782.36
2023-02-06T07:05:58.913Z,99784.89
2023-02-06T07:08:26.779Z,99785.27
2023-02-06T07:10:54.630Z,99786.33
2023-02-06T07:13:22.659Z,99782.77
2023-02-06T07:15:50.565Z,99783.11
2023-02-06T07:18:18.405Z,99779.52
2023-02-06T07:20:46.404Z,99785.75
2023-02-06T07:23:14.331Z,99788.17
2023-02-06T07:25:42.243Z,99792.12
2023-02-06T07:28:10.273Z,99792.47
2023-02-06T07:30:38.436Z,99790.46
2023-02-06T07:33:06.648Z,99790.09
2023-02-06T07:35:34.710Z,99789.08
2023-02-06T07:38:02.901Z,99785.23
2023-02-06T07:40:44.016Z,99784.73
2023-02-06T07:43:13.926Z,99785.65
2023-02-06T07:45:42.819Z,99790.20
2023-02-06T07:48:11.485Z,99790.63
2023-02-06T07:50:39.524Z,99788.98
2023-02-06T07:53:07.655Z,99785.80
2023-02-06T07:55:37.630Z,99782.90
2023-02-06T07:58:05.931Z,99779.20
2023-02-06T08:00:33.968Z,99770.80
2023-02-06T08:03:01.835Z,99772.63
2023-02-06T08:05:29.798Z,99771.27
2023-02-06T08:07:58.224Z,99776.79
2023-02-06T08:10:26.507Z,99779.40
2023-02-06T08:12:54.542Z,99779.20
2023-02-06T08:15:22.975Z,99781.64
2023-02-06T08:17:50.932Z,99775.48
2023-02-06T08:20:18.933Z,99767.54
2023-02-06T08:22:46.851Z,99768.28
2023-02-06T08:25:14.881Z,99770.05
2023-02-06T08:27:42.815Z,99767.14
2023-02-06T08:30:12.376Z,99774.44
2023-02-06T08:32:40.551Z,99773.74
2023-02-06T08:35:10.611Z,99775.30
2023-02-06T08:37:38.565Z,99777.67
2023-02-06T08:40:07.856Z,99783.73
2023-02-06T08:42:35.763Z,99784.71
2023-02-06T08:45:03.910Z,99782.44
2023-02-06T08:47:31.785Z,99787.90
2023-02-06T08:50:01.568Z,99788.50
2023-02-06T08:52:31.108Z,99790.77
2023-02-06T08:54:58.952Z,99791.90
2023-02-06T08:57:26.910Z,99791.41
2023-02-06T08:59:54.747Z,99794.02
2023-02-06T09:02:22.818Z,99797.48
2023-02-06T09:04:51.018Z,99796.44
2023-02-06T09:07:18.926Z,99796.35
2023-02-06T09:09:47.103Z,99802.73
2023-02-06T09:12:15.670Z,99801.64
2023-02-06T09:14:43.602Z,99801.07
2023-02-06T09:17:11.495Z,99798.80
2023-02-06T09:19:39.618Z,99800.24
2023-02-06T09:22:07.561Z,99794.98
2023-02-06T09:24:35.443Z,99802.39
2023-02-06T09:27:03.418Z,99806.89
2023-02-06T09:29:34.066Z,99802.48
2023-02-06T09:32:02.305Z,99803.66
2023-02-06T09:34:30.785Z,99804.48
2023-02-06T09:37:01.396Z,99807.42
2023-02-06T09:39:30.539Z,99807.83
2023-02-06T09:42:11.555Z,99807.95
2023-02-06T09:44:47.979Z,99809.81
2023-02-06T09:47:27.092Z,99810.02
2023-02-06T09:49:59.543Z,99805.67
2023-02-06T09:52:33.140Z,99802.82
2023-02-06T09:55:15.767Z,99804.32
2023-02-06T09:58:06.704Z,99808.20
2023-02-06T10:00:37.904Z,99808.64
2023-02-06T10:03:27.099Z,99804.41
2023-02-06T10:06:29.427Z,99804.63
2023-02-06T10:09:03.194Z,99807.20
2023-02-06T10:11:50.026Z,99806.27
2023-02-06T10:14:18.000Z,99799.83
2023-02-06T10:17:08.727Z,99800.89
2023-02-06T10:19:49.180Z,99800.27
2023-02-06T10:22:24.361Z,99796.96
2023-02-06T10:25:11.578Z,99798.60
2023-02-06T10:27:42.930Z,99789.64
2023-02-06T10:30:20.520Z,99783.79
2023-02-06T10:32:57.078Z,99780.55
2023-02-06T10:36:03.186Z,99782.81
2023-02-06T10:39:06.451Z,99791.67
2023-02-06T10:42:10.990Z,99788.27
2023-02-06T10:44:51.456Z,99783.88
2023-02-06T10:47:37.433Z,99781.90
2023-02-06T10:50:25.839Z,99784.92
2023-02-06T10:52:57.073Z,99778.83
2023-02-06T10:55:31.751Z,99775.33
2023-02-06T10:58:13.458Z,99779.35
2023-02-06T11:00:44.084Z,99773.71
2023-02-06T11:03:20.606Z,99771.18
2023-02-06T11:05:48.521Z,99769.48
2023-02-06T11:08:20.891Z,99769.23
2023-02-06T11:10:49.039Z,99764.55
2023-02-06T11:13:48.699Z,99768.13
2023-02-06T11:16:24.676Z,99764.55
2023-02-06T11:18:55.572Z,99769.31
2023-02-06T11:21:41.664Z,99770.81
2023-02-06T11:24:12.188Z,99765.16
2023-02-06T11:26:51.587Z,99764.27
2023-02-06T11:29:32.399Z,99760.34
2023-02-06T11:32:07.098Z,99760.09
2023-02-06T11:34:54.683Z,99764.11
2023-02-06T11:37:51.971Z,99763.56
2023-02-06T11:40:20.004Z,99762.30
2023-02-06T11:42:51.263Z,99762.35
2023-02-06T11:45:32.142Z,99755.54
2023-02-06T11:48:01.224Z,99756.91
2023-02-06T11:50:30.915Z,99759.91
2023-02-06T11:53:08.268Z,99759.34
2023-02-06T11:55:38.618Z,99748.73
2023-02-06T11:58:09.647Z,99744.55
2023-02-06T12:00:40.239Z,99743.43
2023-02-06T12:03:27.512Z,99743.10
2023-02-06T12:06:11.712Z,99744.60
2023-02-06T12:08:51.063Z,99744.33
2023-02-06T12:11:49.484Z,99745.02
2023-02-06T12:14:23.084Z,99752.90
2023-02-06T12:16:52.645Z,99752.48
2023-02-06T12:19:32.297Z,99751.90
2023-02-06T12:22:12.463Z,99752.16
2023-02-06T12:24:48.307Z,99750.98
2023-02-06T12:27:38.893Z,99747.95
2023-02-06T12:30:29.356Z,99744.32
2023-02-06T12:33:07.296Z,99744.16
2023-02-06T12:35:42.714Z,99742.12
2023-02-06T12:38:19.120Z,99746.19
2023-02-06T12:40:51.115Z,99749.16
2023-02-06T12:43:20.149Z,99753.64
2023-02-06T12:45:50.711Z,99757.23
2023-02-06T12:48:21.857Z,99751.79
2023-02-06T12:51:12.830Z,99750.48
2023-02-06T12:53:49.172Z,99758.77
2023-02-06T12:56:45.592Z,99759.62
2023-02-06T12:59:22.263Z,99764.23
2023-02-06T13:01:57.255Z,99766.42
2023-02-06T13:04:30.431Z,99766.55
2023-02-06T13:07:09.422Z,99771.52
2023-02-06T13:09:48.221Z,99771.20
2023-02-06T13:12:21.992Z,99773.17
2023-02-06T13:15:03.446Z,99772.20
2023-02-06T13:17:35.806Z,99771.91
2023-02-06T13:20:15.764Z,99774.91
2023-02-06T13:22:45.416Z,99781.84
2023-02-06T13:25:31.909Z,99784.50
2023-02-06T13:28:02.147Z,99784.48
2023-02-06T13:30:30.145Z,99787.54
2023-02-06T13:33:11.010Z,99787.20
2023-02-06T13:35:56.380Z,99789.12
2023-02-06T13:38:24.318Z,99789.86
2023-02-06T13:41:14.184Z,99790.52
2023-02-06T13:43:55.779Z,99789.41
2023-02-06T13:47:06.032Z,99786.89
2023-02-06T13:50:05.022Z,99785.46
2023-02-06T13:52:54.400Z,99791.56
2023-02-06T13:56:00.784Z,99794.31
2023-02-06T13:58:58.004Z,99791.48
2023-02-06T14:01:30.114Z,99795.52
2023-02-06T14:03:59.004Z,99800.70
2023-02-06T14:06:39.614Z,99806.85
2023-02-06T14:09:48.744Z,99807.38
2023-02-06T14:12:53.536Z,99802.85
2023-02-06T14:15:39.303Z,99799.42
2023-02-06T14:18:13.662Z,99801.12
2023-02-06T14:20:51.945Z,99802.66
2023-02-06T14:23:32.007Z,99804.68
2023-02-06T14:26:08.351Z,99810.77
2023-02-06T14:29:05.011Z,99810.80
2023-02-06T14:32:10.624Z,99809.58
2023-02-06T14:35:03.401Z,99811.35
2023-02-06T14:37:44.992Z,99816.92
2023-02-06T14:40:27.338Z,99813.70
2023-02-06T14:43:02.599Z,99814.89
2023-02-06T14:45:41.768Z,99816.20
2023-02-06T14:48:23.861Z,99823.65
2023-02-06T14:50:56.611Z,99822.27
2023-02-06T14:53:30.273Z,99823.42
2023-02-06T14:56:17.564Z,99818.81
2023-02-06T14:58:46.330Z,99819.23
2023-02-06T15:01:17.373Z,99818.13
2023-02-06T15:03:48.406Z,99821.73
2023-02-06T15:06:31.239Z,99822.95
2023-02-06T15:08:59.763Z,99824.70
2023-02-06T15:11:30.388Z,99825.08
2023-02-06T15:14:02.257Z,99824.61
2023-02-06T15:16:30.694Z,99824.13
2023-02-06T15:19:24.874Z,99818.89
2023-02-06T15:22:01.900Z,99824.33
2023-02-06T15:24:56.554Z,99829.58
2023-02-06T15:27:30.551Z,99829.96
2023-02-06T15:29:59.661Z,99827.29
2023-02-06T15:32:38.093Z,99824.41
2023-02-06T15:35:40.448Z,99824.90
2023-02-06T15:38:15.570Z,99827.52
2023-02-06T15:40:49.249Z,99834.31
2023-02-06T15:43:20.217Z,99841.27
2023-02-06T15:45:50.636Z,99845.23
2023-02-06T15:48:38.475Z,99838.15
2023-02-06T15:51:21.602Z,99837.77
2023-02-06T15:53:51.725Z,99837.91
2023-02-06T15:56:30.194Z,99838.76
2023-02-06T15:59:04.402Z,99839.44
2023-02-06T16:01:37.266Z,99839.14
2023-02-06T16:04:32.109Z,99840.86
2023-02-06T16:07:27.302Z,99844.89
2023-02-06T16:10:04.802Z,99839.95
2023-02-06T16:12:35.794Z,99839.98
2023-02-06T16:15:21.173Z,99836.85
2023-02-06T16:17:49.197Z,99839.95
2023-02-06T16:20:29.334Z,99841.91
2023-02-06T16:23:17.802Z,99843.01
2023-02-06T16:26:06.093Z,99844.80
2023-02-06T16:28:49.675Z,99842.53
2023-02-06T16:31:17.676Z,99848.83
2023-02-06T16:33:49.462Z,99848.72
2023-02-06T16:36:19.245Z,99847.81
2023-02-06T16:38:54.224Z,99853.48
2023-02-06T16:41:34.546Z,99861.53
2023-02-06T16:44:04.818Z,99872.73
2023-02-06T16:46:32.928Z,99878.38
2023-02-06T16:49:01.211Z,99882.62
2023-02-06T16:51:31.968Z,99882.17
2023-02-06T16:54:01.998Z,99875.64
2023-02-06T16:56:31.396Z,99872.29
2023-02-06T16:58:59.422Z,99870.46
2023-02-06T17:04:28.943Z,99869.92
2023-02-06T17:06:57.446Z,99876.88
2023-02-06T17:09:25.600Z,99884.46
2023-02-06T17:11:54.171Z,99887.36
2023-02-06T17:14:23.247Z,99888.77
2023-02-06T17:16:51.263Z,99889.50
2023-02-06T17:19:19.629Z,99887.67
2023-02-06T17:24:57.180Z,99878.73
2023-02-06T17:27:25.484Z,99884.79
2023-02-06T17:29:53.587Z,99887.34
2023-02-06T17:32:22.218Z,99880.79
2023-02-06T17:34:52.500Z,99885.70
2023-02-06T17:37:22.266Z,99893.17
2023-02-06T17:39:52.180Z,99892.74
2023-02-06T17:42:21.278Z,99890.27
2023-02-06T17:44:49.489Z,99892.58
2023-02-06T17:47:17.852Z,99895.61
2023-02-06T17:49:45.907Z,99889.71
2023-02-06T17:52:14.139Z,99887.23
2023-02-06T17:54:42.834Z,99889.44
2023-02-06T17:57:11.606Z,99890.55
2023-02-06T17:59:39.828Z,99885.41
2023-02-06T18:02:13.574Z,99888.84
2023-02-06T18:04:42.038Z,99890.06
2023-02-06T18:07:10.270Z,99893.34
2023-02-06T18:09:39.576Z,99896.34
2023-02-06T18:12:09.124Z,99897.27
2023-02-06T18:14:37.271Z,99897.86
2023-02-06T18:17:05.681Z,99902.48
2023-02-06T18:19:34.117Z,99907.60
2023-02-06T18:22:02.105Z,99909.17
2023-02-06T18:24:30.201Z,99917.08
2023-02-06T18:26:58.372Z,99913.34
2023-02-06T18:29:28.127Z,99911.04
2023-02-06T18:32:01.057Z,99908.30
2023-02-06T18:37:37.951Z,99914.30
2023-02-06T18:40:06.415Z,99914.52
2023-02-06T18:42:34.416Z,99918.24
2023-02-06T18:45:04.231Z,99916.63
2023-02-06T18:47:32.553Z,99913.27
2023-02-06T18:50:00.588Z,99917.19
2023-02-06T18:52:29.263Z,99916.49
2023-02-06T18:54:57.351Z,99915.47
2023-02-06T18:57:25.627Z,99913.41
2023-02-06T18:59:53.846Z,99904.95
2023-02-06T19:02:21.907Z,99900.86
2023-02-06T19:04:49.886Z,99901.30
2023-02-06T19:07:18.388Z,99905.41
2023-02-06T19:09:48.048Z,99904.33
2023-02-06T19:12:16.308Z,99908.38
2023-02-06T19:14:44.658Z,99902.80
2023-02-06T19:17:12.924Z,99905.16
2023-02-06T19:19:40.924Z,99903.79
2023-02-06T19:22:09.162Z,99905.09
2023-02-06T19:24:37.545Z,99902.84
2023-02-06T19:27:05.630Z,99904.53
2023-02-06T19:32:28.485Z,99906.96
2023-02-06T19:34:56.493Z,99912.41
2023-02-06T19:37:25.127Z,99915.04
2023-02-06T19:39:54.093Z,99919.13
2023-02-06T19:42:22.043Z,99920.96
2023-02-06T19:44:54.336Z,99918.67
2023-02-06T19:47:24.225Z,99915.42
2023-02-06T19:49:53.083Z,99912.05
2023-02-06T19:52:21.313Z,99911.66
2023-02-06T19:54:49.361Z,99912.63
2023-02-06T19:57:17.665Z,99912.23
2023-02-06T19:59:45.808Z,99916.19
2023-02-06T20:02:16.869Z,99923.52
2023-02-06T20:04:44.993Z,99922.77
2023-02-06T20:07:13.403Z,99925.39
2023-02-06T20:09:41.495Z,99931.98
2023-02-06T20:12:11.235Z,99936.38
2023-02-06T20:14:39.407Z,99942.35
2023-02-06T20:17:08.598Z,99945.79
2023-02-06T20:19:36.864Z,99945.98
2023-02-06T20:22:05.226Z,99945.45
2023-02-06T20:24:34.085Z,99952.15
2023-02-06T20:27:03.993Z,99959.41
2023-02-06T20:29:36.017Z,99963.77
2023-02-06T20:32:05.572Z,99969.37
2023-02-06T20:34:34.996Z,99972.40
2023-02-06T20:37:04.527Z,99969.80
2023-02-06T20:39:33.811Z,99973.34
2023-02-06T20:42:02.110Z,99977.02
2023-02-06T20:44:31.085Z,99980.89
2023-02-06T20:46:59.382Z,99981.33
2023-02-06T20:49:28.878Z,99991.08
2023-02-06T20:51:57.246Z,99994.23
2023-02-06T20:54:26.003Z,99993.71
2023-02-06T20:56:54.235Z,99987.21
2023-02-06T20:59:22.882Z,99986.21
2023-02-06T21:01:51.390Z,99982.92
2023-02-06T21:04:20.193Z,99981.49
2023-02-06T21:06:48.658Z,99986.58
2023-02-06T21:09:17.853Z,99989.39
2023-02-06T21:11:48.649Z,99996.49
2023-02-06T21:14:18.308Z,100002.73
2023-02-06T21:16:47.125Z,100005.47
2023-02-06T21:19:19.488Z,100003.72
2023-02-06T21:21:48.292Z,100002.58
2023-02-06T21:24:17.336Z,100005.83
2023-02-06T21:26:45.378Z,100012.36
2023-02-06T21:29:14.790Z,100018.84
2023-02-06T21:31:43.588Z,100019.45
2023-02-06T21:34:20.755Z,100020.14
2023-02-06T21:36:49.134Z,100022.17
2023-02-06T21:39:23.038Z,100030.23
2023-02-06T21:41:51.006Z,100036.71
2023-02-06T21:44:19.793Z,100033.52
2023-02-06T21:46:47.648Z,100030.57
2023-02-06T21:49:15.628Z,100032.27
2023-02-06T21:51:43.557Z,100034.58
2023-02-06T21:54:11.494Z,100035.09
2023-02-06T21:56:39.499Z,100046.56
2023-02-06T21:59:09.507Z,100055.89
2023-02-06T22:01:37.817Z,100053.80
2023-02-06T22:04:07.125Z,100050.38
2023-02-06T22:06:35.216Z,100057.01
2023-02-06T22:09:05.571Z,100059.66
2023-02-06T22:11:36.415Z,100063.48
2023-02-06T22:14:11.698Z,100063.34
2023-02-06T22:16:40.347Z,100068.24
2023-02-06T22:19:09.794Z,100068.83
2023-02-06T22:21:37.705Z,100072.33
2023-02-06T22:24:07.293Z,100077.09
2023-02-06T22:26:36.920Z,100074.30
2023-02-06T22:29:11.676Z,100079.06
2023-02-06T22:31:40.974Z,100086.09
2023-02-06T22:34:20.829Z,100082.84
2023-02-06T22:36:49.595Z,100076.71
2023-02-06T22:39:17.903Z,100068.90
2023-02-06T22:41:46.612Z,100050.55
2023-02-06T22:44:16.256Z,100047.24
2023-02-06T22:46:50.398Z,100047.86
2023-02-06T22:49:20.134Z,100051.48
2023-02-06T22:51:48.091Z,100041.76
2023-02-06T22:54:16.162Z,100046.11
2023-02-06T22:56:44.936Z,100049.16
2023-02-06T22:59:21.725Z,100037.64
2023-02-06T23:01:52.564Z,100039.95
2023-02-06T23:04:23.801Z,100041.20
2023-02-06T23:06:52.912Z,100044.19
2023-02-06T23:09:24.137Z,100031.60
2023-02-06T23:11:53.075Z,100031.80
2023-02-06T23:14:21.220Z,100037.58
2023-02-06T23:16:49.480Z,100031.81
2023-02-06T23:19:19.420Z,100034.33
2023-02-06T23:21:49.571Z,100035.15
2023-02-06T23:24:18.847Z,100036.00
2023-02-06T23:26:49.237Z,100041.33
2023-02-06T23:29:18.877Z,100028.96
2023-02-06T23:31:47.983Z,100036.89
2023-02-06T23:34:17.297Z,100036.81
2023-02-06T23:36:46.490Z,100043.63
2023-02-06T23:39:15.207Z,100035.02
2023-02-06T23:41:43.146Z,100037.61
2023-02-06T23:44:11.221Z,100026.28
2023-02-06T23:46:40.434Z,100043.34
2023-02-06T23:49:08.861Z,100052.86
2023-02-06T23:51:37.393Z,100049.30
2023-02-06T23:54:07.027Z,100046.63
2023-02-06T23:56:35.546Z,100041.58
2023-02-06T23:59:05.123Z,100038.77
